createdAt,value
2023-02-22T00:00:59.582Z,24.20
2023-02-22T00:05:01.216Z,21.40
2023-02-22T00:09:03.498Z,23.00
2023-02-22T00:13:07.476Z,21.23
2023-02-22T00:17:09.605Z,21.08
2023-02-22T00:21:12.445Z,22.45
2023-02-22T00:25:17.184Z,21.45
2023-02-22T00:29:18.874Z,20.50
2023-02-22T00:33:20.738Z,18.77
2023-02-22T00:37:22.445Z,19.65
2023-02-22T00:41:24.241Z,18.90
2023-02-22T00:45:28.080Z,17.40
2023-02-22T00:49:29.706Z,18.45
2023-02-22T00:53:31.363Z,18.45
2023-02-22T00:57:35.034Z,19.45
2023-02-22T01:01:36.640Z,19.70
2023-02-22T01:05:38.673Z,19.52
2023-02-22T01:09:41.476Z,19.23
2023-02-22T01:13:45.186Z,18.10
2023-02-22T01:17:47.538Z,18.05
2023-02-22T01:21:50.033Z,16.95
2023-02-22T01:25:51.668Z,18.00
2023-02-22T01:29:53.308Z,18.87
2023-02-22T01:33:54.926Z,17.25
2023-02-22T01:37:57.997Z,16.10
2023-02-22T01:41:59.651Z,16.30
2023-02-22T01:46:05.310Z,14.00
2023-02-22T01:50:07.012Z,16.77
2023-02-22T01:54:15.197Z,15.70
2023-02-22T01:58:18.656Z,17.77
2023-02-22T02:02:25.052Z,16.15
2023-02-22T02:06:29.373Z,16.00
2023-02-22T02:10:32.223Z,16.45
2023-02-22T02:14:40.121Z,15.45
2023-02-22T02:18:42.707Z,15.98
2023-02-22T02:23:13.279Z,15.15
2023-02-22T02:27:30.710Z,16.75
2023-02-22T02:36:01.209Z,16.62
2023-02-22T02:40:47.508Z,15.65
2023-02-22T02:44:56.205Z,15.93
2023-02-22T02:49:07.094Z,15.07
2023-02-22T02:53:10.454Z,15.68
2023-02-22T02:57:12.466Z,17.12
2023-02-22T03:01:30.334Z,15.38
2023-02-22T03:05:37.616Z,14.27
2023-02-22T03:09:45.100Z,14.98
2023-02-22T03:14:33.123Z,15.50
2023-02-22T03:19:05.080Z,14.45
2023-02-22T03:23:34.091Z,13.75
2023-02-22T03:27:43.544Z,14.13
2023-02-22T03:32:01.889Z,13.80
2023-02-22T03:36:17.943Z,12.57
2023-02-22T03:40:28.002Z,12.07
2023-02-22T03:44:33.508Z,11.90
2023-02-22T03:48:43.940Z,12.73
2023-02-22T03:52:47.361Z,11.45
2023-02-22T03:57:00.522Z,12.15
2023-02-22T04:01:02.417Z,11.77
2023-02-22T04:05:04.244Z,12.23
2023-02-22T04:09:08.460Z,12.60
2023-02-22T04:13:10.622Z,11.85
2023-02-22T04:17:12.333Z,12.88
2023-02-22T04:21:14.855Z,12.55
2023-02-22T04:25:16.821Z,11.50
2023-02-22T04:29:18.469Z,11.60
2023-02-22T04:33:20.180Z,11.07
2023-02-22T04:37:21.786Z,12.57
2023-02-22T04:41:25.458Z,12.13
2023-02-22T04:45:27.355Z,13.85
2023-02-22T04:49:29.045Z,12.82
2023-02-22T04:53:30.680Z,13.40
2023-02-22T04:57:32.612Z,13.60
2023-02-22T05:01:36.003Z,15.50
2023-02-22T05:05:37.691Z,15.05
2023-02-22T05:09:39.322Z,13.65
2023-02-22T05:13:42.121Z,13.65
2023-02-22T05:17:43.768Z,12.32
2023-02-22T05:21:45.569Z,12.88
2023-02-22T05:25:47.500Z,13.32
2023-02-22T05:29:49.173Z,13.40
2023-02-22T05:33:50.845Z,13.00
2023-02-22T05:37:53.076Z,14.18
2023-02-22T05:41:54.769Z,14.32
2023-02-22T05:45:56.395Z,14.40
2023-02-22T05:49:58.106Z,15.02
2023-02-22T05:53:59.766Z,14.85
2023-02-22T05:58:02.049Z,14.13
2023-02-22T06:02:03.750Z,14.38
2023-02-22T06:06:05.645Z,14.93
2023-02-22T06:10:07.446Z,18.83
2023-02-22T06:14:09.219Z,15.10
2023-02-22T06:18:10.940Z,16.10
2023-02-22T06:22:18.441Z,15.27
2023-02-22T06:26:20.101Z,14.60
2023-02-22T06:30:24.500Z,14.77
2023-02-22T06:34:26.187Z,13.32
2023-02-22T06:38:27.868Z,13.73
2023-02-22T06:42:29.667Z,13.23
2023-02-22T06:46:31.585Z,14.95
2023-02-22T06:50:35.847Z,12.80
2023-02-22T06:54:39.086Z,11.90
2023-02-22T06:58:40.729Z,12.13
2023-02-22T07:02:43.180Z,12.00
2023-02-22T07:06:46.857Z,11.12
2023-02-22T07:10:50.304Z,11.02
2023-02-22T07:14:55.466Z,11.40
2023-02-22T07:18:57.168Z,12.77
2023-02-22T07:22:59.434Z,14.25
2023-02-22T07:27:02.428Z,13.70
2023-02-22T07:31:04.875Z,13.32
2023-02-22T07:35:06.876Z,14.75
2023-02-22T07:39:08.637Z,16.70
2023-02-22T07:43:16.514Z,16.15
2023-02-22T07:47:18.134Z,14.43
2023-02-22T07:51:20.639Z,17.20
2023-02-22T07:55:25.141Z,16.42
2023-02-22T07:59:26.832Z,19.10
2023-02-22T08:03:36.331Z,16.85
2023-02-22T08:07:38.220Z,18.23
2023-02-22T08:11:39.847Z,17.85
2023-02-22T08:15:43.883Z,16.25
2023-02-22T08:19:45.508Z,14.82
2023-02-22T08:23:51.375Z,13.57
2023-02-22T08:27:58.558Z,14.23
2023-02-22T08:36:02.367Z,12.77
2023-02-22T08:40:04.201Z,12.93
2023-02-22T08:44:05.821Z,12.07
2023-02-22T08:48:07.564Z,11.27
2023-02-22T08:52:09.433Z,12.35
2023-02-22T08:56:11.570Z,11.40
2023-02-22T09:00:13.864Z,10.60
2023-02-22T09:04:15.481Z,10.70
2023-02-22T09:08:17.361Z,11.10
2023-02-22T09:12:18.999Z,10.55
2023-02-22T09:16:20.659Z,9.30
2023-02-22T09:20:24.532Z,10.07
2023-02-22T09:24:26.558Z,9.27
2023-02-22T09:28:29.251Z,10.40
2023-02-22T09:32:31.175Z,8.52
2023-02-22T09:36:33.120Z,9.27
2023-02-22T09:40:44.727Z,9.00
2023-02-22T09:44:59.871Z,8.55
2023-02-22T09:49:20.361Z,8.80
2023-02-22T09:53:55.577Z,9.25
2023-02-22T09:58:02.333Z,8.95
2023-02-22T10:02:11.477Z,9.00
2023-02-22T10:06:17.178Z,9.27
2023-02-22T10:10:21.270Z,8.57
2023-02-22T10:14:43.765Z,7.95
2023-02-22T10:18:45.522Z,8.93
2023-02-22T10:23:24.221Z,8.23
2023-02-22T10:27:54.199Z,8.48
2023-02-22T10:32:01.909Z,8.52
2023-02-22T10:36:04.346Z,8.55
2023-02-22T10:40:22.793Z,9.05
2023-02-22T10:44:24.878Z,8.77
2023-02-22T10:48:30.118Z,9.40
2023-02-22T10:52:33.793Z,9.05
2023-02-22T10:56:35.708Z,8.43
2023-02-22T11:00:39.775Z,8.93
2023-02-22T11:04:49.382Z,9.00
2023-02-22T11:08:52.061Z,8.35
2023-02-22T11:12:53.750Z,7.95
2023-02-22T11:16:57.112Z,8.60
2023-02-22T11:21:06.306Z,7.12
2023-02-22T11:25:08.805Z,7.30
2023-02-22T11:29:33.858Z,6.85
2023-02-22T11:33:37.734Z,7.10
2023-02-22T11:37:39.422Z,6.50
2023-02-22T11:41:41.698Z,6.55
2023-02-22T11:46:02.411Z,5.90
2023-02-22T11:50:17.832Z,5.82
2023-02-22T11:54:28.786Z,5.75
2023-02-22T11:58:42.636Z,5.80
2023-02-22T12:03:02.896Z,6.20
2023-02-22T12:07:16.746Z,5.75
2023-02-22T12:11:48.024Z,5.78
2023-02-22T12:16:23.822Z,5.70
2023-02-22T12:20:36.208Z,6.07
2023-02-22T12:24:51.618Z,5.75
2023-02-22T12:29:38.536Z,6.57
2023-02-22T12:33:50.834Z,6.12
2023-02-22T12:38:06.430Z,6.00
2023-02-22T12:42:16.706Z,6.10
2023-02-22T12:46:26.840Z,5.57
2023-02-22T12:50:34.285Z,5.28
2023-02-22T12:55:11.079Z,6.28
2023-02-22T12:59:25.543Z,6.25
2023-02-22T13:03:36.354Z,5.95
2023-02-22T13:07:56.222Z,5.85
2023-02-22T13:12:13.143Z,5.95
2023-02-22T13:16:53.430Z,6.30
2023-02-22T13:21:01.359Z,6.00
2023-02-22T13:25:19.224Z,6.50
2023-02-22T13:29:28.538Z,6.00
2023-02-22T13:33:53.230Z,6.78
2023-02-22T13:38:00.478Z,7.03
2023-02-22T13:42:43.926Z,7.22
2023-02-22T13:47:08.658Z,7.20
2023-02-22T13:51:20.549Z,6.75
2023-02-22T13:55:32.523Z,6.32
2023-02-22T13:59:36.856Z,7.00
2023-02-22T14:03:41.007Z,6.95
2023-02-22T14:07:47.966Z,6.80
2023-02-22T14:11:56.625Z,7.32
2023-02-22T14:16:02.136Z,6.68
2023-02-22T14:20:20.961Z,7.40
2023-02-22T14:24:22.875Z,7.20
2023-02-22T14:28:51.295Z,7.22
2023-02-22T14:32:53.126Z,8.30
2023-02-22T14:36:57.206Z,8.40
2023-02-22T14:41:00.623Z,7.87
2023-02-22T14:45:14.158Z,12.40
2023-02-22T14:49:20.830Z,8.25
2023-02-22T14:53:22.394Z,9.68
2023-02-22T14:57:30.649Z,8.88
2023-02-22T15:02:02.264Z,9.25
2023-02-22T15:05:59.571Z,8.70
2023-02-22T15:10:26.143Z,8.88
2023-02-22T15:14:27.841Z,9.20
2023-02-22T15:18:38.348Z,9.13
2023-02-22T15:22:40.061Z,10.60
2023-02-22T15:26:59.070Z,9.13
2023-02-22T15:31:35.028Z,8.77
2023-02-22T15:35:37.528Z,9.30
2023-02-22T15:39:43.717Z,9.13
2023-02-22T15:43:45.484Z,8.85
2023-02-22T15:47:49.329Z,10.38
2023-02-22T15:52:03.596Z,9.40
2023-02-22T15:56:10.352Z,9.65
2023-02-22T16:00:36.047Z,9.25
2023-02-22T16:04:37.967Z,10.02
2023-02-22T16:08:55.118Z,9.52
2023-02-22T16:13:31.146Z,9.65
2023-02-22T16:17:49.482Z,10.15
2023-02-22T16:22:03.112Z,9.63
2023-02-22T16:26:16.324Z,10.23
2023-02-22T16:30:24.297Z,10.13
2023-02-22T16:34:26.271Z,10.07
2023-02-22T16:38:33.817Z,10.38
2023-02-22T16:42:35.477Z,10.63
2023-02-22T16:46:37.753Z,10.63
2023-02-22T16:50:39.887Z,10.93
2023-02-22T16:54:45.018Z,10.60
2023-02-22T16:58:49.881Z,11.63
2023-02-22T17:02:51.521Z,11.25
2023-02-22T17:06:53.366Z,10.90
2023-02-22T17:10:57.272Z,10.88
2023-02-22T17:14:59.054Z,11.75
2023-02-22T17:19:00.890Z,11.55
2023-02-22T17:23:10.373Z,12.35
2023-02-22T17:27:12.199Z,11.88
2023-02-22T17:31:22.543Z,11.63
2023-02-22T17:35:26.067Z,10.45
2023-02-22T17:39:27.894Z,12.50
2023-02-22T17:43:29.776Z,12.90
2023-02-22T17:47:31.388Z,12.75
2023-02-22T17:51:33.158Z,13.68
2023-02-22T17:55:37.693Z,13.10
2023-02-22T17:59:40.596Z,13.85
2023-02-22T18:03:42.344Z,13.35
2023-02-22T18:07:47.005Z,13.48
2023-02-22T18:11:48.676Z,13.62
2023-02-22T18:15:50.609Z,13.90
2023-02-22T18:19:52.264Z,14.35
2023-02-22T18:23:54.819Z,14.80
2023-02-22T18:27:56.470Z,16.85
2023-02-22T18:31:58.560Z,15.27
2023-02-22T18:36:00.249Z,15.40
2023-02-22T18:40:01.911Z,16.12
2023-02-22T18:44:05.518Z,16.35
2023-02-22T18:48:07.110Z,16.33
2023-02-22T18:52:11.840Z,16.92
2023-02-22T18:56:21.553Z,16.67
2023-02-22T19:00:28.470Z,18.25
2023-02-22T19:04:30.109Z,18.00
2023-02-22T19:08:32.353Z,18.95
2023-02-22T19:12:34.144Z,19.80
2023-02-22T19:16:35.849Z,20.95
2023-02-22T19:20:37.516Z,21.75
2023-02-22T19:24:39.730Z,21.23
2023-02-22T19:28:41.313Z,21.62
2023-02-22T19:32:47.267Z,21.08
2023-02-22T19:36:49.968Z,22.23
2023-02-22T19:40:51.881Z,21.37
2023-02-22T19:44:53.723Z,21.87
2023-02-22T19:48:57.189Z,23.40
2023-02-22T19:52:59.136Z,24.50
2023-02-22T19:57:01.178Z,23.98
2023-02-22T20:01:13.463Z,23.85
2023-02-22T20:05:16.370Z,24.25
2023-02-22T20:09:20.778Z,24.77
2023-02-22T20:13:22.418Z,24.37
2023-02-22T20:17:25.402Z,24.20
2023-02-22T20:21:32.069Z,25.10
2023-02-22T20:25:35.271Z,26.25
2023-02-22T20:29:36.989Z,26.90
2023-02-22T20:33:41.477Z,26.37
2023-02-22T20:37:43.443Z,28.55
2023-02-22T20:41:46.352Z,28.62
2023-02-22T20:45:47.979Z,27.13
2023-02-22T20:49:49.639Z,28.60
2023-02-22T20:53:51.713Z,25.83
2023-02-22T20:57:53.390Z,28.20
2023-02-22T21:01:55.485Z,27.85
2023-02-22T21:05:57.187Z,28.17
2023-02-22T21:09:58.917Z,27.75
2023-02-22T21:14:01.518Z,28.23
2023-02-22T21:18:04.442Z,30.05
2023-02-22T21:22:08.063Z,28.42
2023-02-22T21:26:16.001Z,29.95
2023-02-22T21:30:18.001Z,30.10
2023-02-22T21:34:20.893Z,30.45
2023-02-22T21:38:22.507Z,30.15
2023-02-22T21:42:24.699Z,31.75
2023-02-22T21:46:27.878Z,32.42
2023-02-22T21:50:30.430Z,31.48
2023-02-22T21:54:32.026Z,31.42
2023-02-22T21:58:33.656Z,33.30
2023-02-22T22:02:37.886Z,34.45
2023-02-22T22:06:39.684Z,34.45
2023-02-22T22:10:41.315Z,34.85
2023-02-22T22:14:42.986Z,34.53
2023-02-22T22:18:46.708Z,34.17
2023-02-22T22:22:49.043Z,35.03
2023-02-22T22:26:54.404Z,35.28
2023-02-22T22:30:56.152Z,37.42
2023-02-22T22:34:59.293Z,36.95
2023-02-22T22:39:01.092Z,36.03
2023-02-22T22:43:03.016Z,36.63
2023-02-22T22:47:05.799Z,38.65
2023-02-22T22:51:12.976Z,37.25
2023-02-22T22:59:17.765Z,38.08
2023-02-22T23:03:19.635Z,39.20
2023-02-22T23:07:21.317Z,44.78
2023-02-22T23:11:22.941Z,40.20
2023-02-22T23:15:25.706Z,41.58
2023-02-22T23:19:27.367Z,40.20
2023-02-22T23:23:29.005Z,38.75
2023-02-22T23:27:30.692Z,42.40
2023-02-22T23:31:32.445Z,39.70
2023-02-22T23:35:34.341Z,39.47
2023-02-22T23:39:36.326Z,38.55
2023-02-22T23:43:42.712Z,40.45
2023-02-22T23:47:44.344Z,39.37
2023-02-22T23:51:46.694Z,43.00
2023-02-22T23:55:49.019Z,41.63
2023-02-22T23:59:51.196Z,42.35
